createdAt,value
2019-03-21T00:01:04.712Z,147.73
2019-03-21T00:03:34.299Z,148.63
2019-03-21T00:06:05.308Z,150.20
2019-03-21T00:08:34.847Z,155.53
2019-03-21T00:11:13.005Z,162.87
2019-03-21T00:13:42.553Z,176.03
2019-03-21T00:16:13.908Z,193.97
2019-03-21T00:18:43.378Z,191.33
2019-03-21T00:21:12.762Z,201.23
2019-03-21T00:23:42.160Z,209.87
2019-03-21T00:26:11.529Z,219.90
2019-03-21T00:28:40.929Z,218.13
2019-03-21T00:31:10.361Z,221.07
2019-03-21T00:33:40.105Z,203.40
2019-03-21T00:36:09.547Z,230.43
2019-03-21T00:38:39.083Z,214.20
2019-03-21T00:41:08.455Z,220.57
2019-03-21T00:43:39.118Z,195.40
2019-03-21T00:46:09.427Z,172.87
2019-03-21T00:48:40.728Z,187.47
2019-03-21T00:51:10.791Z,173.70
2019-03-21T00:53:40.345Z,175.47
2019-03-21T00:56:09.916Z,176.37
2019-03-21T00:58:39.980Z,166.47
2019-03-21T01:01:09.684Z,165.07
2019-03-21T01:03:40.856Z,160.50
2019-03-21T01:06:11.974Z,127.67
2019-03-21T01:08:41.375Z,132.00
2019-03-21T01:11:10.852Z,131.23
2019-03-21T01:13:41.166Z,119.10
2019-03-21T01:16:10.764Z,119.63
2019-03-21T01:18:45.298Z,115.37
2019-03-21T01:21:14.743Z,110.50
2019-03-21T01:23:44.110Z,103.47
2019-03-21T01:26:14.737Z,94.80
2019-03-21T01:28:44.112Z,103.60
2019-03-21T01:31:13.580Z,92.87
2019-03-21T01:33:42.944Z,88.20
2019-03-21T01:36:12.491Z,90.00
2019-03-21T01:38:41.925Z,98.00
2019-03-21T01:41:19.425Z,100.67
2019-03-21T01:43:48.913Z,87.87
2019-03-21T01:46:22.646Z,91.60
2019-03-21T01:48:52.060Z,97.00
2019-03-21T01:51:21.702Z,93.27
2019-03-21T01:53:54.579Z,90.57
2019-03-21T01:56:24.723Z,93.17
2019-03-21T01:58:54.201Z,91.07
2019-03-21T02:01:23.744Z,92.10
2019-03-21T02:03:53.152Z,87.27
2019-03-21T02:06:22.764Z,82.63
2019-03-21T02:08:52.165Z,80.07
2019-03-21T02:11:21.679Z,79.90
2019-03-21T02:13:51.212Z,80.53
2019-03-21T02:16:20.629Z,71.73
2019-03-21T02:18:50.198Z,74.03
2019-03-21T02:21:19.672Z,74.93
2019-03-21T02:23:49.368Z,72.53
2019-03-21T02:26:18.765Z,69.07
2019-03-21T02:28:48.234Z,63.87
2019-03-21T02:31:17.740Z,68.90
2019-03-21T02:33:47.456Z,64.90
2019-03-21T02:36:16.892Z,62.83
2019-03-21T02:38:47.595Z,62.37
2019-03-21T02:41:17.448Z,59.47
2019-03-21T02:43:46.855Z,63.03
2019-03-21T02:46:17.794Z,59.30
2019-03-21T02:48:47.220Z,55.97
2019-03-21T02:51:16.614Z,61.00
2019-03-21T02:53:46.079Z,60.77
2019-03-21T02:56:19.245Z,59.80
2019-03-21T02:58:48.721Z,62.47
2019-03-21T03:01:18.194Z,59.07
2019-03-21T03:03:47.664Z,57.13
2019-03-21T03:06:18.691Z,57.70
2019-03-21T03:08:48.141Z,59.10
2019-03-21T03:11:20.129Z,59.00
2019-03-21T03:13:51.153Z,58.00
2019-03-21T03:16:22.286Z,56.87
2019-03-21T03:18:51.829Z,62.47
2019-03-21T03:21:21.398Z,61.07
2019-03-21T03:23:52.411Z,57.60
2019-03-21T03:26:21.930Z,59.57
2019-03-21T03:28:51.895Z,61.10
2019-03-21T03:31:21.349Z,58.30
2019-03-21T03:33:50.890Z,57.93
2019-03-21T03:36:20.377Z,55.77
2019-03-21T03:38:49.779Z,55.57
2019-03-21T03:41:21.492Z,53.63
2019-03-21T03:43:51.036Z,53.70
2019-03-21T03:46:20.565Z,52.80
2019-03-21T03:48:50.044Z,53.07
2019-03-21T03:51:19.592Z,54.60
2019-03-21T03:53:49.063Z,57.77
2019-03-21T03:56:18.549Z,53.00
2019-03-21T03:58:51.325Z,50.40
2019-03-21T04:01:20.890Z,47.37
2019-03-21T04:03:50.334Z,49.13
2019-03-21T04:06:19.821Z,50.57
2019-03-21T04:08:49.375Z,49.23
2019-03-21T04:11:18.908Z,48.73
2019-03-21T04:13:48.307Z,45.00
2019-03-21T04:16:17.690Z,46.33
2019-03-21T04:18:47.143Z,46.13
2019-03-21T04:21:17.109Z,45.07
2019-03-21T04:23:46.579Z,46.03
2019-03-21T04:26:31.227Z,47.30
2019-03-21T04:29:00.718Z,47.03
2019-03-21T04:31:30.166Z,49.37
2019-03-21T04:34:03.380Z,52.00
2019-03-21T04:36:32.822Z,50.07
2019-03-21T04:39:02.306Z,51.67
2019-03-21T04:41:31.771Z,51.00
2019-03-21T04:44:01.186Z,48.43
2019-03-21T04:46:30.547Z,46.97
2019-03-21T04:49:00.014Z,48.57
2019-03-21T04:51:29.450Z,50.10
2019-03-21T04:53:59.103Z,51.73
2019-03-21T04:56:28.462Z,47.07
2019-03-21T04:58:57.860Z,48.63
2019-03-21T05:01:27.231Z,48.73
2019-03-21T05:03:56.787Z,52.27
2019-03-21T05:06:26.433Z,52.87
2019-03-21T05:08:56.642Z,49.23
2019-03-21T05:11:26.087Z,50.20
2019-03-21T05:13:55.487Z,53.63
2019-03-21T05:16:24.923Z,51.23
2019-03-21T05:18:59.217Z,51.90
2019-03-21T05:21:30.275Z,58.57
2019-03-21T05:23:59.747Z,54.07
2019-03-21T05:26:29.125Z,55.37
2019-03-21T05:29:00.167Z,55.53
2019-03-21T05:31:37.071Z,55.13
2019-03-21T05:34:06.476Z,57.30
2019-03-21T05:36:35.910Z,58.10
2019-03-21T05:39:08.225Z,57.17
2019-03-21T05:41:37.608Z,55.27
2019-03-21T05:44:15.982Z,57.40
2019-03-21T05:46:45.429Z,58.97
2019-03-21T05:49:14.816Z,61.80
2019-03-21T05:51:44.353Z,58.77
2019-03-21T05:54:13.886Z,58.23
2019-03-21T05:56:43.250Z,66.73
2019-03-21T05:59:12.659Z,70.30
2019-03-21T06:01:42.123Z,72.93
2019-03-21T06:04:11.743Z,78.23
2019-03-21T06:06:44.208Z,82.60
2019-03-21T06:09:17.234Z,88.80
2019-03-21T06:11:49.938Z,92.27
2019-03-21T06:14:22.051Z,94.80
2019-03-21T06:16:51.761Z,111.07
2019-03-21T06:19:39.779Z,103.27
2019-03-21T06:22:39.788Z,102.03
2019-03-21T06:25:15.681Z,105.53
2019-03-21T06:27:43.394Z,112.77
2019-03-21T06:30:12.887Z,117.07
2019-03-21T06:32:42.324Z,116.23
2019-03-21T06:35:21.660Z,123.97
2019-03-21T06:37:51.385Z,125.93
2019-03-21T06:40:21.535Z,119.10
2019-03-21T06:42:51.079Z,114.70
2019-03-21T06:45:20.897Z,114.10
2019-03-21T06:47:52.907Z,114.73
2019-03-21T06:50:21.851Z,110.70
2019-03-21T06:52:51.532Z,105.03
2019-03-21T06:55:21.067Z,102.43
2019-03-21T06:57:50.466Z,103.33
2019-03-21T07:00:19.903Z,95.87
2019-03-21T07:02:49.337Z,95.43
2019-03-21T07:05:18.812Z,86.33
2019-03-21T07:07:48.315Z,85.90
2019-03-21T07:10:17.764Z,80.73
2019-03-21T07:12:47.243Z,78.83
2019-03-21T07:15:16.670Z,76.60
2019-03-21T07:17:46.069Z,73.47
2019-03-21T07:20:17.142Z,66.23
2019-03-21T07:22:47.063Z,67.27
2019-03-21T07:25:16.571Z,69.23
2019-03-21T07:27:45.978Z,66.60
2019-03-21T07:30:15.750Z,67.47
2019-03-21T07:32:45.283Z,62.77
2019-03-21T07:35:14.774Z,64.10
2019-03-21T07:37:44.181Z,57.73
2019-03-21T07:40:13.895Z,59.37
2019-03-21T07:42:43.396Z,59.70
2019-03-21T07:45:13.301Z,58.10
2019-03-21T07:47:42.705Z,52.47
2019-03-21T07:50:13.804Z,56.87
2019-03-21T07:52:44.978Z,56.53
2019-03-21T07:55:14.515Z,55.50
2019-03-21T07:57:44.131Z,54.97
2019-03-21T08:00:16.406Z,53.80
2019-03-21T08:02:45.891Z,49.20
2019-03-21T08:05:15.570Z,51.10
2019-03-21T08:07:45.071Z,46.13
2019-03-21T08:10:14.953Z,49.87
2019-03-21T08:12:44.400Z,48.80
2019-03-21T08:15:20.304Z,49.03
2019-03-21T08:17:49.789Z,47.57
2019-03-21T08:20:19.304Z,49.47
2019-03-21T08:22:51.886Z,45.10
2019-03-21T08:25:21.343Z,47.17
2019-03-21T08:27:51.846Z,45.10
2019-03-21T08:30:24.475Z,46.87
2019-03-21T08:32:53.871Z,44.23
2019-03-21T08:35:23.392Z,48.63
2019-03-21T08:37:52.921Z,48.17
2019-03-21T08:40:22.291Z,47.03
2019-03-21T08:42:51.696Z,47.53
2019-03-21T08:45:22.775Z,51.03
2019-03-21T08:47:52.242Z,50.83
2019-03-21T08:50:21.725Z,49.87
2019-03-21T08:52:51.212Z,53.27
2019-03-21T08:55:20.713Z,52.23
2019-03-21T08:57:51.677Z,52.20
2019-03-21T09:00:21.143Z,52.63
2019-03-21T09:02:50.763Z,51.37
2019-03-21T09:05:20.291Z,53.07
2019-03-21T09:07:49.763Z,47.80
2019-03-21T09:10:19.162Z,48.93
2019-03-21T09:12:49.388Z,48.37
2019-03-21T09:15:18.868Z,47.20
2019-03-21T09:17:48.531Z,44.63
2019-03-21T09:20:19.020Z,44.80
2019-03-21T09:22:51.563Z,45.33
2019-03-21T09:25:21.048Z,46.43
2019-03-21T09:28:01.755Z,45.30
2019-03-21T09:30:21.605Z,43.90
2019-03-21T09:32:50.982Z,45.33
2019-03-21T09:35:20.445Z,44.07
2019-03-21T09:37:49.818Z,41.37
2019-03-21T09:40:19.298Z,42.60
2019-03-21T09:42:48.674Z,41.13
2019-03-21T09:45:18.078Z,39.70
2019-03-21T09:47:47.446Z,43.23
2019-03-21T09:50:25.179Z,38.33
2019-03-21T09:52:55.021Z,39.33
2019-03-21T09:55:24.491Z,41.10
2019-03-21T09:57:54.334Z,40.43
2019-03-21T10:00:31.884Z,37.37
2019-03-21T10:03:03.053Z,36.17
2019-03-21T10:05:32.801Z,37.93
2019-03-21T10:08:02.644Z,35.90
2019-03-21T10:10:33.774Z,34.77
2019-03-21T10:13:03.787Z,35.80
2019-03-21T10:15:34.912Z,33.50
2019-03-21T10:18:04.739Z,34.43
2019-03-21T10:20:34.342Z,32.43
2019-03-21T10:23:03.890Z,35.50
2019-03-21T10:25:33.506Z,33.73
2019-03-21T10:28:04.460Z,33.00
2019-03-21T10:30:39.091Z,34.23
2019-03-21T10:33:11.452Z,35.00
2019-03-21T10:35:43.515Z,39.17
2019-03-21T10:38:13.159Z,39.43
2019-03-21T10:40:42.872Z,37.50
2019-03-21T10:43:12.371Z,33.87
2019-03-21T10:45:42.018Z,33.53
2019-03-21T10:48:11.532Z,33.30
2019-03-21T10:50:41.745Z,35.77
2019-03-21T10:53:11.568Z,33.13
2019-03-21T10:55:41.175Z,33.77
2019-03-21T10:58:10.715Z,31.00
2019-03-21T11:00:40.265Z,29.93
2019-03-21T11:03:09.954Z,28.80
2019-03-21T11:05:39.665Z,29.13
2019-03-21T11:08:11.755Z,27.57
2019-03-21T11:10:41.202Z,25.10
2019-03-21T11:13:10.613Z,26.10
2019-03-21T11:15:40.054Z,24.23
2019-03-21T11:18:09.537Z,25.03
2019-03-21T11:20:39.857Z,22.80
2019-03-21T11:23:09.575Z,21.57
2019-03-21T11:25:39.253Z,20.17
2019-03-21T11:28:09.468Z,24.33
2019-03-21T11:30:40.444Z,26.00
2019-03-21T11:33:11.118Z,29.07
2019-03-21T11:35:40.709Z,30.90
2019-03-21T11:38:10.301Z,32.37
2019-03-21T11:40:39.779Z,31.97
2019-03-21T11:43:10.140Z,34.83
2019-03-21T11:45:41.166Z,37.17
2019-03-21T11:48:10.706Z,37.67
2019-03-21T11:50:40.295Z,36.90
2019-03-21T11:53:09.892Z,35.67
2019-03-21T11:55:39.397Z,33.93
2019-03-21T11:58:08.895Z,32.33
2019-03-21T12:00:44.448Z,35.93
2019-03-21T12:03:09.517Z,32.90
2019-03-21T12:05:38.992Z,32.17
2019-03-21T12:08:08.576Z,33.47
2019-03-21T12:10:38.047Z,32.70
2019-03-21T12:13:07.444Z,37.63
2019-03-21T12:15:36.931Z,35.67
2019-03-21T12:18:06.548Z,37.03
2019-03-21T12:20:36.207Z,41.00
2019-03-21T12:23:06.219Z,40.93
2019-03-21T12:25:35.696Z,37.10
2019-03-21T12:28:05.213Z,33.93
2019-03-21T12:30:37.399Z,32.90
2019-03-21T12:33:07.064Z,33.00
2019-03-21T12:35:36.452Z,34.00
2019-03-21T12:38:06.128Z,33.40
2019-03-21T12:40:35.854Z,38.43
2019-03-21T12:43:05.576Z,37.87
2019-03-21T12:45:35.076Z,41.40
2019-03-21T12:48:04.703Z,40.23
2019-03-21T12:50:34.212Z,46.90
2019-03-21T12:53:04.428Z,48.17
2019-03-21T12:55:33.967Z,48.87
2019-03-21T12:58:03.601Z,48.87
2019-03-21T13:00:37.848Z,50.87
2019-03-21T13:03:07.537Z,48.80
2019-03-21T13:05:37.304Z,49.63
2019-03-21T13:08:06.998Z,48.07
2019-03-21T13:10:36.484Z,53.13
2019-03-21T13:13:06.595Z,48.47
2019-03-21T13:15:35.969Z,51.43
2019-03-21T13:18:05.993Z,56.07
2019-03-21T13:20:35.575Z,50.63
2019-03-21T13:23:05.688Z,46.50
2019-03-21T13:25:35.574Z,50.07
2019-03-21T13:28:06.721Z,52.33
2019-03-21T13:30:36.307Z,55.90
2019-03-21T13:33:06.550Z,58.03
2019-03-21T13:35:36.072Z,54.00
2019-03-21T13:38:09.132Z,60.43
2019-03-21T13:40:38.653Z,56.80
2019-03-21T13:43:08.290Z,54.87
2019-03-21T13:45:37.731Z,50.27
2019-03-21T13:48:07.207Z,49.87
2019-03-21T13:50:36.719Z,51.17
2019-03-21T13:53:17.826Z,42.80
2019-03-21T13:55:37.443Z,37.47
2019-03-21T13:58:06.915Z,42.07
2019-03-21T14:00:36.318Z,40.63
2019-03-21T14:03:06.296Z,36.20
2019-03-21T14:05:35.714Z,35.17
2019-03-21T14:08:05.542Z,35.37
2019-03-21T14:10:35.155Z,38.40
2019-03-21T14:13:06.257Z,35.80
2019-03-21T14:15:35.647Z,35.47
2019-03-21T14:18:05.276Z,36.33
2019-03-21T14:20:35.556Z,31.57
2019-03-21T14:23:16.070Z,30.70
2019-03-21T14:25:37.736Z,35.60
2019-03-21T14:28:07.272Z,31.43
2019-03-21T14:30:36.792Z,32.23
2019-03-21T14:33:08.239Z,30.00
2019-03-21T14:35:38.327Z,30.67
2019-03-21T14:38:07.854Z,33.07
2019-03-21T14:40:38.957Z,31.73
2019-03-21T14:43:08.356Z,28.40
2019-03-21T14:45:39.330Z,30.67
2019-03-21T14:48:08.745Z,31.03
2019-03-21T14:50:39.840Z,33.60
2019-03-21T14:53:09.243Z,34.67
2019-03-21T14:55:47.100Z,30.57
2019-03-21T14:58:09.717Z,28.40
2019-03-21T15:00:40.942Z,29.83
2019-03-21T15:03:10.514Z,31.20
2019-03-21T15:05:40.083Z,30.40
2019-03-21T15:08:09.567Z,29.57
2019-03-21T15:10:39.011Z,30.20
2019-03-21T15:13:08.496Z,31.33
2019-03-21T15:15:37.861Z,30.80
2019-03-21T15:18:08.646Z,31.27
2019-03-21T15:20:38.012Z,31.70
2019-03-21T15:23:07.472Z,32.47
2019-03-21T15:25:36.990Z,31.33
2019-03-21T15:28:06.495Z,32.53
2019-03-21T15:30:35.870Z,31.53
2019-03-21T15:33:05.534Z,34.43
2019-03-21T15:35:34.936Z,33.37
2019-03-21T15:38:04.576Z,29.83
2019-03-21T15:40:34.937Z,31.20
2019-03-21T15:43:04.655Z,26.83
2019-03-21T15:45:34.196Z,25.57
2019-03-21T15:48:03.672Z,27.40
2019-03-21T15:50:37.965Z,28.03
2019-03-21T15:53:08.049Z,26.43
2019-03-21T15:55:37.693Z,26.57
2019-03-21T15:58:07.256Z,25.23
2019-03-21T16:00:38.528Z,24.53
2019-03-21T16:03:09.275Z,25.60
2019-03-21T16:05:39.075Z,25.13
2019-03-21T16:08:09.331Z,23.50
2019-03-21T16:10:39.148Z,24.97
2019-03-21T16:13:09.308Z,27.80
2019-03-21T16:15:38.857Z,23.63
2019-03-21T16:18:08.379Z,26.17
2019-03-21T16:20:37.983Z,26.57
2019-03-21T16:23:07.376Z,26.83
2019-03-21T16:25:36.786Z,28.70
2019-03-21T16:28:07.097Z,30.20
2019-03-21T16:30:39.582Z,29.47
2019-03-21T16:33:10.532Z,28.43
2019-03-21T16:35:40.321Z,29.03
2019-03-21T16:38:09.866Z,31.37
2019-03-21T16:40:39.343Z,30.30
2019-03-21T16:43:08.726Z,32.43
2019-03-21T16:45:38.313Z,29.83
2019-03-21T16:48:09.084Z,31.90
2019-03-21T16:50:39.027Z,31.20
2019-03-21T16:53:08.391Z,33.30
2019-03-21T16:55:37.963Z,28.97
2019-03-21T16:58:07.445Z,31.60
2019-03-21T17:00:36.926Z,31.90
2019-03-21T17:03:06.681Z,29.87
2019-03-21T17:05:36.147Z,30.97
2019-03-21T17:08:11.157Z,29.47
2019-03-21T17:10:36.812Z,31.10
2019-03-21T17:13:07.781Z,31.33
2019-03-21T17:15:37.223Z,30.10
2019-03-21T17:18:06.865Z,30.47
2019-03-21T17:20:36.479Z,28.80
2019-03-21T17:23:06.133Z,30.50
2019-03-21T17:25:35.598Z,29.97
2019-03-21T17:28:05.172Z,33.27
2019-03-21T17:30:34.700Z,32.03
2019-03-21T17:33:04.318Z,31.07
2019-03-21T17:35:33.767Z,33.03
2019-03-21T17:38:04.850Z,34.63
2019-03-21T17:40:34.280Z,33.27
2019-03-21T17:43:03.736Z,33.10
2019-03-21T17:45:33.306Z,33.27
2019-03-21T17:48:02.780Z,35.27
2019-03-21T17:50:33.799Z,33.73
2019-03-21T17:53:03.204Z,34.13
2019-03-21T17:55:32.643Z,34.53
2019-03-21T17:58:02.060Z,33.50
2019-03-21T18:00:35.267Z,34.67
2019-03-21T18:03:07.071Z,35.10
2019-03-21T18:05:36.510Z,38.63
2019-03-21T18:08:05.993Z,34.63
2019-03-21T18:10:35.529Z,37.27
2019-03-21T18:13:05.353Z,35.03
2019-03-21T18:15:34.933Z,35.57
2019-03-21T18:18:04.477Z,38.87
2019-03-21T18:20:34.092Z,37.47
2019-03-21T18:23:03.639Z,36.60
2019-03-21T18:25:33.005Z,36.30
2019-03-21T18:28:02.554Z,34.90
2019-03-21T18:30:32.227Z,35.57
2019-03-21T18:33:03.157Z,33.20
2019-03-21T18:35:32.747Z,37.63
2019-03-21T18:38:02.232Z,36.27
2019-03-21T18:40:31.737Z,36.23
2019-03-21T18:43:01.215Z,37.93
2019-03-21T18:45:30.647Z,35.90
2019-03-21T18:48:00.122Z,37.57
2019-03-21T18:50:29.489Z,37.57
2019-03-21T18:52:58.935Z,39.03
2019-03-21T18:55:28.381Z,40.63
2019-03-21T18:57:57.847Z,35.27
2019-03-21T19:00:27.379Z,37.47
2019-03-21T19:02:56.935Z,37.27
2019-03-21T19:05:26.340Z,35.77
2019-03-21T19:07:55.984Z,36.67
2019-03-21T19:10:25.527Z,38.57
2019-03-21T19:12:55.052Z,37.90
2019-03-21T19:15:24.560Z,38.07
2019-03-21T19:17:54.091Z,38.90
2019-03-21T19:20:24.135Z,39.87
2019-03-21T19:22:53.631Z,38.70
2019-03-21T19:25:23.035Z,40.30
2019-03-21T19:27:52.477Z,39.03
2019-03-21T19:30:22.428Z,38.10
2019-03-21T19:32:53.450Z,44.20
2019-03-21T19:35:22.920Z,39.00
2019-03-21T19:37:52.531Z,42.40
2019-03-21T19:40:22.151Z,44.07
2019-03-21T19:42:51.720Z,41.60
2019-03-21T19:45:21.225Z,44.83
2019-03-21T19:47:51.097Z,45.97
2019-03-21T19:50:22.107Z,48.77
2019-03-21T19:52:52.317Z,51.60
2019-03-21T19:55:30.816Z,51.97
2019-03-21T19:57:53.203Z,46.27
2019-03-21T20:00:23.516Z,52.87
2019-03-21T20:02:54.559Z,48.87
2019-03-21T20:05:23.977Z,52.50
2019-03-21T20:07:53.406Z,49.70
2019-03-21T20:10:23.085Z,46.80
2019-03-21T20:12:52.566Z,48.67
2019-03-21T20:15:22.111Z,50.47
2019-03-21T20:17:51.636Z,53.40
2019-03-21T20:20:21.097Z,54.57
2019-03-21T20:22:50.475Z,52.27
2019-03-21T20:25:20.016Z,52.37
2019-03-21T20:27:49.442Z,58.70
2019-03-21T20:30:21.311Z,57.47
2019-03-21T20:32:50.893Z,58.07
2019-03-21T20:35:20.377Z,55.07
2019-03-21T20:37:49.971Z,55.10
2019-03-21T20:40:19.988Z,55.23
2019-03-21T20:42:50.865Z,52.70
2019-03-21T20:45:21.299Z,52.20
2019-03-21T20:47:50.736Z,51.03
2019-03-21T20:50:20.213Z,49.20
2019-03-21T20:52:49.687Z,50.17
2019-03-21T20:55:19.046Z,54.13
2019-03-21T20:57:48.434Z,52.27
2019-03-21T21:00:20.411Z,54.23
2019-03-21T21:02:50.419Z,50.80
2019-03-21T21:05:22.795Z,51.73
2019-03-21T21:07:51.285Z,48.90
2019-03-21T21:10:21.066Z,51.37
2019-03-21T21:12:50.693Z,43.73
2019-03-21T21:15:20.198Z,50.87
2019-03-21T21:17:49.685Z,47.97
2019-03-21T21:20:19.194Z,46.77
2019-03-21T21:22:48.694Z,44.37
2019-03-21T21:25:19.345Z,40.40
2019-03-21T21:27:50.491Z,38.50
2019-03-21T21:30:22.377Z,42.13
2019-03-21T21:32:51.789Z,50.10
2019-03-21T21:35:21.216Z,47.23
2019-03-21T21:37:50.804Z,48.03
2019-03-21T21:40:20.400Z,51.80
2019-03-21T21:42:49.888Z,49.33
2019-03-21T21:45:19.466Z,50.03
2019-03-21T21:47:49.048Z,48.23
2019-03-21T21:50:18.572Z,49.77
2019-03-21T21:52:48.113Z,49.20
2019-03-21T21:55:17.555Z,47.57
2019-03-21T21:57:47.475Z,49.70
2019-03-21T22:00:18.661Z,47.43
2019-03-21T22:02:48.126Z,45.20
2019-03-21T22:05:17.604Z,46.33
2019-03-21T22:07:47.063Z,50.93
2019-03-21T22:10:16.607Z,47.67
2019-03-21T22:12:46.098Z,45.53
2019-03-21T22:15:16.518Z,43.87
2019-03-21T22:17:46.118Z,40.93
2019-03-21T22:20:19.583Z,43.13
2019-03-21T22:22:49.076Z,42.53
2019-03-21T22:25:18.723Z,43.93
2019-03-21T22:27:48.086Z,47.50
2019-03-21T22:30:22.274Z,40.53
2019-03-21T22:32:51.712Z,38.47
2019-03-21T22:35:21.242Z,42.50
2019-03-21T22:37:50.681Z,44.07
2019-03-21T22:40:20.228Z,42.70
2019-03-21T22:42:49.663Z,42.13
2019-03-21T22:45:19.196Z,42.33
2019-03-21T22:47:50.532Z,44.60
2019-03-21T22:50:19.788Z,43.57
2019-03-21T22:52:49.145Z,41.73
2019-03-21T22:55:18.564Z,41.27
2019-03-21T22:57:48.117Z,38.83
2019-03-21T23:00:26.401Z,44.23
2019-03-21T23:02:55.791Z,37.27
2019-03-21T23:05:25.307Z,39.43
2019-03-21T23:07:54.676Z,43.93
2019-03-21T23:10:24.146Z,42.30
2019-03-21T23:12:53.611Z,49.97
2019-03-21T23:15:23.081Z,43.67
2019-03-21T23:17:52.445Z,41.00
2019-03-21T23:20:21.854Z,43.47
2019-03-21T23:22:51.231Z,40.73
2019-03-21T23:25:20.709Z,40.57
2019-03-21T23:27:50.273Z,45.73
2019-03-21T23:30:19.871Z,43.97
2019-03-21T23:32:49.246Z,41.67
2019-03-21T23:35:18.789Z,42.77
2019-03-21T23:37:48.308Z,45.80
2019-03-21T23:40:17.779Z,42.73
2019-03-21T23:42:47.258Z,46.47
2019-03-21T23:45:19.730Z,49.03
2019-03-21T23:47:48.227Z,44.93
2019-03-21T23:50:18.180Z,47.93
2019-03-21T23:52:47.719Z,44.13
2019-03-21T23:55:17.196Z,43.47
2019-03-21T23:57:46.649Z,42.10
